createdAt,value
2022-11-24T00:01:33.431Z,57.60
2022-11-24T00:06:36.925Z,49.70
2022-11-24T00:11:40.300Z,53.10
2022-11-24T00:16:44.853Z,58.90
2022-11-24T00:21:49.555Z,56.90
2022-11-24T00:26:53.244Z,47.00
2022-11-24T00:31:57.963Z,53.40
2022-11-24T00:37:01.227Z,57.20
2022-11-24T00:42:04.738Z,64.80
2022-11-24T00:47:08.844Z,67.70
2022-11-24T00:52:12.339Z,69.90
2022-11-24T00:57:15.994Z,73.50
2022-11-24T01:02:19.527Z,74.20
2022-11-24T01:07:23.485Z,79.80
2022-11-24T01:12:27.197Z,85.50
2022-11-24T01:17:30.903Z,61.30
2022-11-24T01:22:35.158Z,77.70
2022-11-24T01:27:38.962Z,65.10
2022-11-24T01:32:42.220Z,64.30
2022-11-24T01:37:45.425Z,67.10
2022-11-24T01:42:53.399Z,66.60
2022-11-24T01:47:57.802Z,72.50
2022-11-24T01:53:01.462Z,71.80
2022-11-24T01:58:19.805Z,65.40
2022-11-24T02:03:30.157Z,77.40
2022-11-24T02:08:40.016Z,78.30
2022-11-24T02:13:45.975Z,77.80
2022-11-24T02:18:49.783Z,84.40
2022-11-24T02:24:14.668Z,71.10
2022-11-24T02:29:20.284Z,82.60
2022-11-24T02:34:23.741Z,84.20
2022-11-24T02:39:27.146Z,77.00
2022-11-24T02:44:36.404Z,81.80
2022-11-24T02:49:39.710Z,71.40
2022-11-24T02:54:42.943Z,95.00
2022-11-24T02:59:46.940Z,74.00
2022-11-24T03:04:50.638Z,87.40
2022-11-24T03:09:54.245Z,82.90
2022-11-24T03:14:57.397Z,86.90
2022-11-24T03:20:04.954Z,83.00
2022-11-24T03:25:09.109Z,79.80
2022-11-24T03:30:13.204Z,93.70
2022-11-24T03:35:17.314Z,76.80
2022-11-24T03:40:20.908Z,61.40
2022-11-24T03:45:45.593Z,89.40
2022-11-24T03:51:01.679Z,87.20
2022-11-24T03:56:04.996Z,79.90
2022-11-24T04:01:08.765Z,65.80
2022-11-24T04:06:12.382Z,68.90
2022-11-24T04:11:36.114Z,64.10
2022-11-24T04:16:39.833Z,83.60
2022-11-24T04:21:44.285Z,65.60
2022-11-24T04:26:48.312Z,65.30
2022-11-24T04:31:52.129Z,71.40
2022-11-24T04:36:56.277Z,64.90
2022-11-24T04:42:00.377Z,74.30
2022-11-24T04:47:04.680Z,62.20
2022-11-24T04:52:08.666Z,64.10
2022-11-24T04:57:20.956Z,70.40
2022-11-24T05:02:24.767Z,57.90
2022-11-24T05:07:29.145Z,63.20
2022-11-24T05:12:32.814Z,59.40
2022-11-24T05:17:39.561Z,67.00
2022-11-24T05:22:43.230Z,77.90
2022-11-24T05:27:46.682Z,72.00
2022-11-24T05:32:50.164Z,66.60
2022-11-24T05:37:53.666Z,63.20
2022-11-24T05:42:57.406Z,74.20
2022-11-24T05:48:09.172Z,70.60
2022-11-24T05:53:14.476Z,80.80
2022-11-24T05:58:17.701Z,69.70
2022-11-24T06:03:21.571Z,65.30
2022-11-24T06:08:30.706Z,70.40
2022-11-24T06:13:35.681Z,76.00
2022-11-24T06:18:39.797Z,77.80
2022-11-24T06:23:43.742Z,68.30
2022-11-24T06:28:48.151Z,73.30
2022-11-24T06:33:51.808Z,79.10
2022-11-24T06:38:55.263Z,75.30
2022-11-24T06:43:58.615Z,68.10
2022-11-24T06:49:02.559Z,72.30
2022-11-24T06:54:10.706Z,70.90
2022-11-24T06:59:18.838Z,69.30
2022-11-24T07:04:22.434Z,70.30
2022-11-24T07:09:25.662Z,64.20
2022-11-24T07:14:28.847Z,60.80
2022-11-24T07:19:32.424Z,84.40
2022-11-24T07:24:36.124Z,65.10
2022-11-24T07:29:39.991Z,53.10
2022-11-24T07:34:43.252Z,50.20
2022-11-24T07:39:47.684Z,53.50
2022-11-24T07:44:51.624Z,47.50
2022-11-24T07:49:55.183Z,62.70
2022-11-24T07:54:59.349Z,53.40
2022-11-24T08:00:04.652Z,43.90
2022-11-24T08:05:09.070Z,52.00
2022-11-24T08:10:12.475Z,54.20
2022-11-24T08:15:16.768Z,51.60
2022-11-24T08:20:20.475Z,46.20
2022-11-24T08:25:25.779Z,42.60
2022-11-24T08:30:30.470Z,42.50
2022-11-24T08:35:38.259Z,44.40
2022-11-24T08:45:46.283Z,44.00
2022-11-24T08:50:49.808Z,47.30
2022-11-24T08:55:56.787Z,41.20
2022-11-24T09:01:16.555Z,41.80
2022-11-24T09:06:23.767Z,35.90
2022-11-24T09:11:27.930Z,34.10
2022-11-24T09:16:31.503Z,32.00
2022-11-24T09:21:39.355Z,36.20
2022-11-24T09:26:47.245Z,43.80
2022-11-24T09:31:52.100Z,33.10
2022-11-24T09:36:56.364Z,34.90
2022-11-24T09:42:16.555Z,40.40
2022-11-24T09:47:49.165Z,36.70
2022-11-24T09:53:08.140Z,35.60
2022-11-24T09:58:24.968Z,40.90
2022-11-24T10:03:40.938Z,48.20
2022-11-24T10:08:54.443Z,36.40
2022-11-24T10:14:10.805Z,32.30
2022-11-24T10:19:37.309Z,32.10
2022-11-24T10:25:15.764Z,34.60
2022-11-24T10:30:22.646Z,36.80
2022-11-24T10:35:38.443Z,32.30
2022-11-24T10:40:57.084Z,52.10
2022-11-24T10:46:19.403Z,38.20
2022-11-24T10:51:22.890Z,35.40
2022-11-24T10:56:26.292Z,30.40
2022-11-24T11:01:33.526Z,33.30
2022-11-24T11:06:38.311Z,32.90
2022-11-24T11:11:43.224Z,31.80
2022-11-24T11:16:53.878Z,33.00
2022-11-24T11:22:10.281Z,40.20
2022-11-24T11:27:18.285Z,39.90
2022-11-24T11:37:53.876Z,49.50
2022-11-24T11:43:21.634Z,42.00
2022-11-24T11:48:43.307Z,40.20
2022-11-24T11:54:24.781Z,38.90
2022-11-24T11:59:28.125Z,42.00
2022-11-24T12:04:34.139Z,41.00
2022-11-24T12:10:08.328Z,40.80
2022-11-24T12:15:21.151Z,33.60
2022-11-24T12:20:53.384Z,41.40
2022-11-24T12:26:23.219Z,36.90
2022-11-24T12:31:53.157Z,36.60
2022-11-24T12:37:26.510Z,30.50
2022-11-24T12:42:55.000Z,39.40
2022-11-24T12:48:19.742Z,34.00
2022-11-24T12:53:31.166Z,33.20
2022-11-24T12:58:57.297Z,39.00
2022-11-24T13:04:36.606Z,28.20
2022-11-24T13:10:19.394Z,39.70
2022-11-24T13:15:44.604Z,26.20
2022-11-24T13:20:48.100Z,31.80
2022-11-24T13:26:16.478Z,28.40
2022-11-24T13:31:23.613Z,31.20
2022-11-24T13:36:29.187Z,33.90
2022-11-24T13:41:32.867Z,34.20
2022-11-24T13:47:06.308Z,31.40
2022-11-24T13:52:49.109Z,38.50
2022-11-24T13:57:57.350Z,38.00
2022-11-24T14:03:24.316Z,36.50
2022-11-24T14:08:32.118Z,33.20
2022-11-24T14:13:35.754Z,31.50
2022-11-24T14:18:42.330Z,40.50
2022-11-24T14:23:48.660Z,30.10
2022-11-24T14:28:55.568Z,30.50
2022-11-24T14:34:12.180Z,27.20
2022-11-24T14:39:21.414Z,37.00
2022-11-24T14:44:56.933Z,29.90
2022-11-24T14:50:23.364Z,38.00
2022-11-24T14:55:32.626Z,36.20
2022-11-24T15:00:36.664Z,38.10
2022-11-24T15:05:59.295Z,38.80
2022-11-24T15:11:06.487Z,37.80
2022-11-24T15:16:20.163Z,40.30
2022-11-24T15:21:37.064Z,42.90
2022-11-24T15:26:42.392Z,54.80
2022-11-24T15:31:50.976Z,40.10
2022-11-24T15:36:56.972Z,49.70
2022-11-24T15:42:00.653Z,42.70
2022-11-24T15:47:06.345Z,40.80
2022-11-24T15:52:11.901Z,44.10
2022-11-24T15:57:18.314Z,44.10
2022-11-24T16:02:23.966Z,41.90
2022-11-24T16:07:28.830Z,40.90
2022-11-24T16:12:33.387Z,39.00
2022-11-24T16:17:38.122Z,37.80
2022-11-24T16:22:42.574Z,46.70
2022-11-24T16:27:47.618Z,52.30
2022-11-24T16:32:51.877Z,45.20
2022-11-24T16:37:57.171Z,43.00
2022-11-24T16:43:02.043Z,43.40
2022-11-24T16:48:05.990Z,42.20
2022-11-24T16:53:10.516Z,44.80
2022-11-24T16:58:15.682Z,49.70
2022-11-24T17:03:23.215Z,45.40
2022-11-24T17:08:32.734Z,47.10
2022-11-24T17:13:39.673Z,45.80
2022-11-24T17:18:46.137Z,48.30
2022-11-24T17:23:59.477Z,50.40
2022-11-24T17:29:04.074Z,41.90
2022-11-24T17:34:10.472Z,41.80
2022-11-24T17:39:18.004Z,38.60
2022-11-24T17:44:25.641Z,33.80
2022-11-24T17:49:32.482Z,40.90
2022-11-24T17:54:46.494Z,51.50
2022-11-24T17:59:54.276Z,51.60
2022-11-24T18:04:59.802Z,48.20
2022-11-24T18:10:07.816Z,45.00
2022-11-24T18:15:16.491Z,59.70
2022-11-24T18:20:24.093Z,56.30
2022-11-24T18:25:28.842Z,55.80
2022-11-24T18:30:32.995Z,52.90
2022-11-24T18:35:37.514Z,58.90
2022-11-24T18:40:42.161Z,54.90
2022-11-24T18:45:47.809Z,60.50
2022-11-24T18:50:56.762Z,50.90
2022-11-24T18:56:09.837Z,51.90
2022-11-24T19:01:17.143Z,50.50
2022-11-24T19:06:33.885Z,58.40
2022-11-24T19:11:45.093Z,58.10
2022-11-24T19:16:50.941Z,57.20
2022-11-24T19:21:57.588Z,54.50
2022-11-24T19:27:05.045Z,50.10
2022-11-24T19:32:17.501Z,44.00
2022-11-24T19:37:26.105Z,43.80
2022-11-24T19:42:30.380Z,43.00
2022-11-24T19:47:35.624Z,43.10
2022-11-24T19:52:39.541Z,60.10
2022-11-24T19:57:44.697Z,53.90
2022-11-24T20:02:51.348Z,45.20
2022-11-24T20:07:57.836Z,55.40
2022-11-24T20:13:05.433Z,50.20
2022-11-24T20:18:11.242Z,55.70
2022-11-24T20:23:16.186Z,58.10
2022-11-24T20:28:22.796Z,45.10
2022-11-24T20:33:27.848Z,50.80
2022-11-24T20:38:35.356Z,46.20
2022-11-24T20:43:41.158Z,54.60
2022-11-24T20:48:45.794Z,52.50
2022-11-24T20:53:51.466Z,51.80
2022-11-24T20:58:56.308Z,52.40
2022-11-24T21:04:00.253Z,53.30
2022-11-24T21:09:06.278Z,53.00
2022-11-24T21:14:10.046Z,61.10
2022-11-24T21:19:15.190Z,61.40
2022-11-24T21:24:21.913Z,65.50
2022-11-24T21:29:26.254Z,58.80
2022-11-24T21:34:29.825Z,62.60
2022-11-24T21:39:33.795Z,66.50
2022-11-24T21:44:37.542Z,69.90
2022-11-24T21:49:41.282Z,63.40
2022-11-24T21:54:44.823Z,68.70
2022-11-24T21:59:48.165Z,63.90
2022-11-24T22:04:51.716Z,70.00
2022-11-24T22:09:55.320Z,88.00
2022-11-24T22:14:59.125Z,77.50
2022-11-24T22:20:02.550Z,79.20
2022-11-24T22:25:06.554Z,80.60
2022-11-24T22:30:10.897Z,76.40
2022-11-24T22:35:14.488Z,93.00
2022-11-24T22:40:18.187Z,88.40
2022-11-24T22:45:22.245Z,88.20
2022-11-24T22:50:25.997Z,92.40
2022-11-24T22:55:29.548Z,81.60
2022-11-24T23:00:33.133Z,73.00
2022-11-24T23:05:36.812Z,89.70
2022-11-24T23:10:41.273Z,77.30
2022-11-24T23:15:44.514Z,86.10
2022-11-24T23:20:48.267Z,85.70
2022-11-24T23:25:51.956Z,77.70
2022-11-24T23:31:01.759Z,77.90
2022-11-24T23:36:11.493Z,95.30
2022-11-24T23:41:21.576Z,92.20
2022-11-24T23:46:26.308Z,93.80
2022-11-24T23:51:33.000Z,77.90
2022-11-24T23:56:36.937Z,82.10
